Time;durP1;ratioP1;P1;durP2;ratioP2;P2;SDS_P1;SDS_P2;PMS_P1;PMS_P2;Temp;Humidity;BMP_temperature;BMP_pressure;BME280_temperature;BME280_humidity;BME280_pressure;Samples;Min_cycle;Max_cycle;Signal;HPM_P1;HPM_P2
2022/04/26 03:36:46;;;;;;;21.92;14.80;;;;;;;5.84;100.00;100619.00;5196124;28;20053;-79
2022/04/26 03:39:17;;;;;;;21.48;14.40;;;;;;;5.88;100.00;100628.47;5194939;28;20021;-79
2022/04/26 03:41:47;;;;;;;24.38;15.10;;;;;;;5.95;100.00;100614.50;5195574;28;20061;-80
2022/04/26 03:44:17;;;;;;;23.30;15.25;;;;;;;5.88;100.00;100625.88;5195713;28;20464;-80
2022/04/26 03:46:47;;;;;;;23.35;15.27;;;;;;;5.94;100.00;100620.56;5197159;28;20029;-79
2022/04/26 03:49:19;;;;;;;27.50;15.60;;;;;;;6.16;100.00;100624.50;5195694;28;20022;-79
2022/04/26 03:51:53;;;;;;;22.67;14.85;;;;;;;6.23;100.00;100614.00;5192544;28;20049;-79
2022/04/26 03:54:24;;;;;;;23.80;15.93;;;;;;;6.22;100.00;100621.84;5195572;28;20026;-80
2022/04/26 03:56:54;;;;;;;21.70;13.70;;;;;;;6.26;100.00;100632.13;5190024;28;20036;-79
2022/04/26 03:59:25;;;;;;;20.80;12.75;;;;;;;6.29;100.00;100633.81;5185537;28;20393;-78
2022/04/26 04:01:56;;;;;;;19.38;12.60;;;;;;;6.37;100.00;100631.91;5189941;28;20029;-79
2022/04/26 04:04:26;;;;;;;18.40;11.63;;;;;;;6.10;100.00;100643.63;5185464;28;20036;-79
2022/04/26 04:06:56;;;;;;;19.80;11.80;;;;;;;5.94;100.00;100643.91;5191060;28;20085;-79
2022/04/26 04:09:27;;;;;;;18.25;11.88;;;;;;;5.71;100.00;100636.44;5190242;28;20018;-78
2022/04/26 04:11:57;;;;;;;21.17;11.93;;;;;;;5.79;100.00;100641.56;5196391;28;20109;-78
2022/04/26 04:14:28;;;;;;;19.05;12.82;;;;;;;5.77;100.00;100644.13;5192279;28;20099;-79
2022/04/26 04:16:59;;;;;;;18.60;12.95;;;;;;;5.89;100.00;100638.78;5192391;28;20045;-79
2022/04/26 04:19:30;;;;;;;20.23;13.32;;;;;;;5.93;100.00;100647.41;5197747;28;20593;-80
2022/04/26 04:22:00;;;;;;;20.05;13.48;;;;;;;5.97;100.00;100646.47;5192961;28;20026;-80
2022/04/26 04:24:31;;;;;;;21.27;12.77;;;;;;;5.83;100.00;100649.28;5193921;28;20018;-79
2022/04/26 04:27:01;;;;;;;23.98;13.07;;;;;;;6.00;100.00;100639.50;5197422;28;20549;-79
2022/04/26 04:29:31;;;;;;;20.33;13.05;;;;;;;6.14;100.00;100642.72;5192461;28;20022;-79
2022/04/26 04:32:02;;;;;;;23.45;14.27;;;;;;;6.32;100.00;100639.81;5184529;28;20225;-78
2022/04/26 04:34:33;;;;;;;22.58;14.07;;;;;;;6.09;100.00;100641.91;5194209;28;20080;-79
2022/04/26 04:37:03;;;;;;;22.30;13.85;;;;;;;6.20;100.00;100644.34;5194643;28;20040;-79
2022/04/26 04:39:33;;;;;;;21.98;14.55;;;;;;;6.37;100.00;100637.09;5191695;28;20105;-80
2022/04/26 04:42:04;;;;;;;24.77;13.90;;;;;;;6.34;100.00;100644.97;5195454;28;20052;-79
2022/04/26 04:44:34;;;;;;;23.42;14.68;;;;;;;6.43;100.00;100645.66;5193169;28;20026;-79
2022/04/26 04:47:05;;;;;;;22.63;14.35;;;;;;;6.55;100.00;100641.97;5190174;28;20038;-80
2022/04/26 04:49:35;;;;;;;20.85;14.25;;;;;;;6.44;100.00;100644.75;5191755;28;20025;-79
2022/04/26 04:52:06;;;;;;;20.27;14.02;;;;;;;6.48;100.00;100648.16;5188339;28;20032;-80
2022/04/26 04:54:36;;;;;;;22.27;13.85;;;;;;;6.40;100.00;100652.66;5193210;28;20038;-79
2022/04/26 04:57:06;;;;;;;26.65;15.65;;;;;;;6.58;100.00;100657.50;5194160;28;20037;-79
2022/04/26 04:59:36;;;;;;;23.42;14.90;;;;;;;6.62;100.00;100648.78;5189010;28;20030;-79
2022/04/26 05:02:07;;;;;;;22.05;14.38;;;;;;;6.68;100.00;100653.84;5190897;28;20033;-78
2022/04/26 05:04:39;;;;;;;24.05;14.95;;;;;;;6.80;100.00;100664.84;5193606;28;20479;-80
2022/04/26 05:07:09;;;;;;;23.38;15.02;;;;;;;6.96;100.00;100655.03;5196064;28;20026;-79
2022/04/26 05:09:41;;;;;;;22.05;13.88;;;;;;;6.76;100.00;100654.56;5188589;28;20048;-80
2022/04/26 05:12:12;;;;;;;27.77;15.02;;;;;;;7.06;100.00;100652.22;5186811;28;20032;-80
2022/04/26 05:14:42;;;;;;;21.33;15.07;;;;;;;7.28;100.00;100649.16;5190248;28;20037;-79
2022/04/26 05:17:12;;;;;;;21.77;14.48;;;;;;;7.53;100.00;100645.13;5193848;28;20036;-79
2022/04/26 05:19:42;;;;;;;23.70;14.00;;;;;;;7.58;100.00;100653.69;5197492;28;20038;-79
2022/04/26 05:22:14;;;;;;;20.65;14.30;;;;;;;7.68;100.00;100647.38;5197680;28;20105;-79
2022/04/26 05:24:53;;;;;;;18.67;13.65;;;;;;;7.85;100.00;100647.84;5197432;28;20036;-79
2022/04/26 05:27:28;;;;;;;19.98;13.27;;;;;;;8.08;100.00;100645.53;5196729;28;20071;-79
2022/04/26 05:29:58;;;;;;;20.48;14.15;;;;;;;8.45;100.00;100649.00;5193666;28;20022;-80
2022/04/26 05:32:29;;;;;;;18.83;13.35;;;;;;;8.32;100.00;100654.53;5197569;28;20025;-79
2022/04/26 05:35:01;;;;;;;20.92;12.43;;;;;;;8.43;100.00;100648.19;5196466;28;20085;-79
2022/04/26 05:37:32;;;;;;;21.17;13.73;;;;;;;8.41;100.00;100649.09;5198770;28;20025;-79
2022/04/26 05:40:03;;;;;;;19.02;12.55;;;;;;;8.89;100.00;100658.22;5191058;28;20054;-79
2022/04/26 05:42:36;;;;;;;18.77;12.40;;;;;;;10.95;98.41;100645.50;5195161;28;20026;-79
2022/04/26 05:45:07;;;;;;;15.88;11.23;;;;;;;12.76;91.18;100631.16;5195602;28;20029;-79
2022/04/26 05:47:45;;;;;;;14.82;10.18;;;;;;;14.68;77.62;100638.56;5194540;28;20034;-80
2022/04/26 05:50:15;;;;;;;14.13;9.70;;;;;;;15.60;75.98;100626.59;5198403;28;20026;-79
2022/04/26 05:52:45;;;;;;;15.98;9.88;;;;;;;16.57;67.26;100620.91;5195507;28;20121;-77
2022/04/26 05:55:16;;;;;;;17.07;11.00;;;;;;;14.92;73.25;100635.53;5195052;28;20041;-77
2022/04/26 05:57:46;;;;;;;16.75;11.02;;;;;;;12.75;80.36;100634.72;5193275;28;20355;-77
2022/04/26 06:00:17;;;;;;;16.77;11.48;;;;;;;11.61;86.51;100639.47;5188846;28;20039;-79
2022/04/26 06:02:48;;;;;;;17.23;11.82;;;;;;;10.81;93.53;100652.97;5192153;28;20026;-79
2022/04/26 06:05:21;;;;;;;16.88;12.27;;;;;;;10.55;96.55;100651.25;5195222;28;20464;-78
2022/04/26 06:07:52;;;;;;;20.45;13.68;;;;;;;10.33;98.67;100649.44;5196301;28;20100;-79
2022/04/26 06:10:22;;;;;;;20.20;15.07;;;;;;;9.92;100.00;100653.34;5191836;28;20317;-79
2022/04/26 06:12:53;;;;;;;25.08;15.52;;;;;;;9.72;100.00;100647.03;5195966;28;20030;-79
2022/04/26 06:15:23;;;;;;;20.80;15.13;;;;;;;9.96;100.00;100654.13;5200323;28;20081;-78
2022/04/26 06:17:53;;;;;;;22.90;15.70;;;;;;;9.86;100.00;100657.91;5198520;28;20117;-78
2022/04/26 06:20:25;;;;;;;25.70;17.38;;;;;;;9.90;100.00;100649.06;5197867;28;20025;-78
2022/04/26 06:22:55;;;;;;;27.13;17.60;;;;;;;11.57;100.00;100645.75;5196141;28;20087;-79
2022/04/26 06:25:25;;;;;;;25.60;17.33;;;;;;;13.62;89.61;100641.25;5205890;28;20033;-79
2022/04/26 06:27:55;;;;;;;23.83;15.87;;;;;;;15.88;80.13;100629.41;5204247;28;20283;-80
2022/04/26 06:30:26;;;;;;;25.77;16.53;;;;;;;16.49;73.55;100631.09;5202326;28;20280;-80
2022/04/26 06:32:56;;;;;;;21.35;15.45;;;;;;;16.86;74.18;100627.94;5196949;28;20301;-80
2022/04/26 06:35:26;;;;;;;18.97;13.07;;;;;;;17.74;70.90;100627.66;5196403;28;20129;-78
2022/04/26 06:37:58;;;;;;;17.13;12.77;;;;;;;17.27;71.14;100636.81;5189609;28;20029;-77
2022/04/26 06:40:29;;;;;;;16.30;11.85;;;;;;;18.03;68.56;100631.06;5196529;28;20284;-77
2022/04/26 06:43:00;;;;;;;14.77;10.70;;;;;;;17.91;67.94;100623.91;5192407;28;20061;-78
2022/04/26 06:45:30;;;;;;;16.05;11.07;;;;;;;18.35;66.02;100629.84;5196832;28;20498;-78
2022/04/26 06:48:00;;;;;;;12.20;10.00;;;;;;;18.55;66.52;100629.34;5196613;28;20142;-78
2022/04/26 06:50:31;;;;;;;15.27;11.18;;;;;;;19.93;64.04;100623.84;5194066;28;20022;-78
2022/04/26 06:53:01;;;;;;;15.33;10.27;;;;;;;21.06;61.98;100630.22;5191429;28;20056;-77
2022/04/26 06:55:31;;;;;;;14.10;10.27;;;;;;;21.76;60.26;100625.53;5193686;28;20287;-77
2022/04/26 06:58:02;;;;;;;17.15;12.65;;;;;;;20.74;62.37;100630.97;5197303;28;20837;-77
2022/04/26 07:00:33;;;;;;;16.60;12.52;;;;;;;20.62;62.51;100629.25;5190460;28;20033;-77
2022/04/26 07:03:04;;;;;;;15.18;11.50;;;;;;;21.03;64.18;100633.09;5193242;28;20509;-77
2022/04/26 07:05:35;;;;;;;16.63;13.23;;;;;;;19.16;68.48;100635.66;5193159;28;20045;-77
2022/04/26 07:08:05;;;;;;;16.20;11.63;;;;;;;22.35;58.95;100626.78;5199365;28;20022;-78
2022/04/26 07:10:37;;;;;;;14.93;11.82;;;;;;;20.33;66.88;100635.06;5197055;28;20056;-78
2022/04/26 07:13:07;;;;;;;12.90;10.57;;;;;;;21.82;60.75;100628.53;5199365;28;20145;-77
2022/04/26 07:15:37;;;;;;;14.20;12.03;;;;;;;20.54;63.45;100631.66;5194856;28;20060;-77
2022/04/26 07:18:08;;;;;;;14.90;11.73;;;;;;;20.68;65.88;100634.06;5193566;28;20034;-78
2022/04/26 07:20:39;;;;;;;14.98;11.57;;;;;;;21.66;60.01;100628.06;5200932;28;20472;-77
2022/04/26 07:23:11;;;;;;;14.73;12.02;;;;;;;20.03;65.04;100638.19;5200292;28;20168;-78
2022/04/26 07:25:41;;;;;;;13.90;11.40;;;;;;;20.74;64.52;100630.97;5200789;28;20029;-77
2022/04/26 07:28:12;;;;;;;17.73;12.77;;;;;;;20.84;64.17;100630.19;5200666;28;20094;-77
2022/04/26 07:30:44;;;;;;;14.65;11.48;;;;;;;23.90;56.15;100625.63;5200979;28;20274;-77
2022/04/26 07:36:05;;;;;;;14.73;10.95;;;;;;;22.03;61.67;100629.44;5195540;28;20048;-77
2022/04/26 07:38:37;;;;;;;14.38;11.50;;;;;;;21.55;62.33;100628.03;5196074;28;20030;-77
2022/04/26 07:41:09;;;;;;;12.77;9.95;;;;;;;22.71;57.05;100616.59;5193175;28;20025;-77
2022/04/26 07:43:41;;;;;;;15.15;11.75;;;;;;;22.77;57.03;100622.25;5198627;28;20104;-77
2022/04/26 07:46:16;;;;;;;14.48;10.32;;;;;;;23.91;55.51;100620.13;5191843;28;20029;-77
2022/04/26 07:48:46;;;;;;;16.30;10.73;;;;;;;26.31;53.05;100605.81;5193424;28;20029;-78
2022/04/26 07:51:18;;;;;;;14.50;10.98;;;;;;;21.83;59.36;100624.03;5198744;28;20021;-77
2022/04/26 07:53:48;;;;;;;11.52;8.73;;;;;;;22.33;59.76;100623.41;5198073;28;20404;-78
2022/04/26 07:56:18;;;;;;;12.90;10.20;;;;;;;21.88;59.18;100633.34;5201252;28;20025;-77
2022/04/26 07:58:49;;;;;;;12.07;8.33;;;;;;;23.04;55.15;100619.03;5198092;28;20022;-77
2022/04/26 08:01:19;;;;;;;7.73;5.57;;;;;;;24.58;50.75;100615.69;5191113;28;20326;-78
2022/04/26 08:03:49;;;;;;;8.87;6.67;;;;;;;26.26;50.74;100616.19;5196745;28;20284;-77
2022/04/26 08:06:20;;;;;;;11.77;8.53;;;;;;;24.41;53.64;100616.38;5200323;28;20272;-77
2022/04/26 08:08:50;;;;;;;12.18;8.55;;;;;;;24.36;54.92;100618.63;5198231;28;20021;-78
2022/04/26 08:11:22;;;;;;;12.85;9.07;;;;;;;25.00;53.29;100617.88;5192969;28;20017;-77
2022/04/26 08:13:52;;;;;;;11.40;8.50;;;;;;;24.28;54.32;100626.53;5191297;28;20061;-76
2022/04/26 08:16:23;;;;;;;10.43;8.00;;;;;;;25.45;52.91;100626.09;5201318;28;20638;-75
2022/04/26 08:18:53;;;;;;;11.18;8.77;;;;;;;26.62;51.38;100627.75;5197863;28;20026;-75
2022/04/26 08:21:23;;;;;;;10.00;7.53;;;;;;;26.93;49.85;100619.13;5199994;28;20032;-75
2022/04/26 08:29:31;;;;;;;9.57;7.97;;;;;;;23.30;54.03;100637.19;5201396;28;20032;-75
2022/04/26 08:32:02;;;;;;;12.87;7.47;;;;;;;23.24;55.05;100643.06;5197021;28;20712;-76
2022/04/26 08:34:33;;;;;;;12.75;7.97;;;;;;;22.80;57.68;100647.78;5199660;28;20630;-76
2022/04/26 08:37:03;;;;;;;11.43;6.88;;;;;;;25.40;53.29;100639.06;5196549;28;20037;-75
2022/04/26 08:39:33;;;;;;;9.60;6.18;;;;;;;24.59;52.25;100638.78;5198164;28;20495;-76
2022/04/26 08:42:06;;;;;;;7.22;6.00;;;;;;;26.02;49.47;100639.19;5189591;28;20030;-75
2022/04/26 08:44:38;;;;;;;9.10;6.50;;;;;;;24.66;54.57;100641.72;5193895;28;20017;-74
2022/04/26 08:52:49;;;;;;;9.98;6.85;;;;;;;25.80;53.94;100653.81;5195437;28;20091;-76
2022/04/26 08:55:20;;;;;;;9.50;6.60;;;;;;;24.58;55.76;100653.13;5203529;28;20029;-74
2022/04/26 08:57:51;;;;;;;8.98;6.88;;;;;;;22.25;58.64;100671.97;5200311;28;20018;-73
2022/04/26 09:00:21;;;;;;;8.77;6.63;;;;;;;20.28;62.48;100677.03;5197569;28;20109;-75
2022/04/26 09:03:05;;;;;;;10.32;8.15;;;;;;;19.19;64.11;100677.84;5192890;28;20463;-77
2022/04/26 09:05:36;;;;;;;9.95;7.60;;;;;;;19.06;65.08;100675.19;5189864;28;20079;-78
2022/04/26 09:08:20;;;;;;;10.50;7.90;;;;;;;18.93;66.65;100668.19;5192856;28;20025;-81
2022/04/26 09:10:50;;;;;;;9.98;7.15;;;;;;;18.34;68.59;100679.25;5193896;28;20176;-80
2022/04/26 09:13:23;;;;;;;11.43;8.00;;;;;;;17.53;71.34;100681.91;5198502;28;20022;-81
2022/04/26 09:15:56;;;;;;;11.45;7.90;;;;;;;17.51;70.44;100682.91;5204884;28;20025;-78
2022/04/26 09:18:30;;;;;;;11.85;8.13;;;;;;;17.07;71.21;100688.25;5187236;28;20028;-80
2022/04/26 09:21:06;;;;;;;11.18;7.85;;;;;;;16.69;71.68;100691.47;5196991;28;20080;-78
2022/04/26 09:23:41;;;;;;;13.15;8.68;;;;;;;16.39;70.61;100685.31;5194969;28;20149;-77
2022/04/26 09:26:16;;;;;;;12.77;8.27;;;;;;;16.51;71.21;100687.25;5195000;28;20132;-78
2022/04/26 09:28:48;;;;;;;8.77;7.13;;;;;;;16.28;72.82;100684.19;5192458;28;20048;-77
2022/04/26 09:31:28;;;;;;;10.70;7.03;;;;;;;16.05;74.37;100696.03;5188798;28;20045;-77
2022/04/26 09:34:04;;;;;;;9.93;6.75;;;;;;;16.15;74.43;100691.97;5190267;28;20457;-78
2022/04/26 09:36:45;;;;;;;9.77;6.82;;;;;;;16.01;74.74;100694.53;5207637;28;20083;-78
2022/04/26 09:39:21;;;;;;;9.95;6.50;;;;;;;16.07;73.26;100688.88;5187383;28;20511;-77
2022/04/26 09:41:51;;;;;;;10.05;6.25;;;;;;;15.69;73.13;100694.59;5191810;28;20112;-81
2022/04/26 09:44:33;;;;;;;10.25;6.78;;;;;;;15.66;75.37;100700.88;5189139;28;20058;-80
2022/04/26 09:47:03;;;;;;;11.23;6.60;;;;;;;15.61;75.56;100699.41;5192997;28;20498;-77
2022/04/26 09:49:38;;;;;;;9.30;6.20;;;;;;;15.61;76.66;100710.81;5198349;28;20136;-85
2022/04/26 09:52:13;;;;;;;8.40;5.27;;;;;;;15.67;77.42;100707.00;5202105;28;20064;-81
2022/04/26 09:54:45;;;;;;;8.55;5.88;;;;;;;15.44;76.40;100715.28;5200791;28;20491;-79
2022/04/26 09:57:32;;;;;;;10.40;5.78;;;;;;;15.47;75.18;100713.34;5192887;28;20030;-78
2022/04/26 10:00:11;;;;;;;8.43;5.35;;;;;;;15.58;77.54;100718.03;5197915;28;20029;-75
2022/04/26 10:02:46;;;;;;;8.27;5.20;;;;;;;15.93;77.33;100720.47;5198516;28;20030;-76
2022/04/26 10:05:21;;;;;;;8.02;4.82;;;;;;;15.88;73.76;100727.75;5204118;28;20029;-75
2022/04/26 10:07:52;;;;;;;8.95;5.40;;;;;;;16.11;75.80;100719.44;5205157;28;20095;-76
2022/04/26 10:10:23;;;;;;;7.95;5.35;;;;;;;16.03;73.93;100715.53;5200701;28;20468;-76
2022/04/26 10:15:44;;;;;;;9.25;5.60;;;;;;;15.80;73.40;100711.53;5203445;28;20057;-75
2022/04/26 10:18:31;;;;;;;8.10;5.50;;;;;;;15.88;74.31;100716.38;5203017;28;20025;-74
2022/04/26 10:21:04;;;;;;;9.05;4.88;;;;;;;16.00;74.07;100710.41;5200760;28;20030;-76
2022/04/26 10:23:56;;;;;;;8.15;5.07;;;;;;;16.05;71.28;100711.03;5206081;28;20032;-75
2022/04/26 10:26:27;;;;;;;7.72;4.40;;;;;;;16.07;71.05;100703.88;5200189;28;20104;-74
2022/04/26 10:29:05;;;;;;;8.55;4.63;;;;;;;16.17;70.79;100713.81;5203247;28;20057;-76
2022/04/26 10:31:36;;;;;;;8.30;4.72;;;;;;;16.19;71.09;100709.31;5199051;28;20050;-74
2022/04/26 10:34:31;;;;;;;7.35;5.07;;;;;;;16.61;73.29;100712.19;5203785;28;20040;-76
2022/04/26 10:37:21;;;;;;;7.78;5.15;;;;;;;16.60;72.27;100702.56;5204250;28;20048;-75
2022/04/26 10:40:01;;;;;;;8.15;5.60;;;;;;;16.87;76.22;100712.34;5195074;28;20042;-75
2022/04/26 10:42:33;;;;;;;8.27;5.55;;;;;;;17.24;70.51;100705.72;5198993;28;20022;-76
2022/04/26 10:45:11;;;;;;;9.15;5.97;;;;;;;16.75;67.22;100708.75;5206174;28;20032;-74
2022/04/26 10:47:42;;;;;;;7.00;5.07;;;;;;;16.55;71.46;100720.44;5199461;28;20121;-74
2022/04/26 10:50:30;;;;;;;7.57;5.50;;;;;;;16.54;67.93;100724.00;5202557;28;20518;-74
2022/04/26 10:53:01;;;;;;;7.30;5.03;;;;;;;16.31;69.71;100716.53;5198091;28;20029;-76
2022/04/26 10:55:31;;;;;;;7.83;5.70;;;;;;;16.33;74.04;100714.66;5194053;28;20049;-76
2022/04/26 10:58:02;;;;;;;8.10;5.22;;;;;;;16.05;71.97;100713.66;5204945;28;20267;-77
2022/04/26 11:00:34;;;;;;;8.25;5.32;;;;;;;16.22;71.64;100721.47;5195203;28;20089;-77
2022/04/26 11:03:05;;;;;;;10.48;5.93;;;;;;;16.36;71.48;100724.22;5201330;28;20075;-74
2022/04/26 11:05:36;;;;;;;9.65;6.07;;;;;;;16.40;72.44;100721.31;5203754;28;20320;-75
2022/04/26 11:08:06;;;;;;;9.00;5.70;;;;;;;16.03;72.37;100731.34;5202641;28;20022;-73
2022/04/26 11:13:34;;;;;;;10.88;5.20;;;;;;;15.77;72.22;100740.69;5202432;28;20097;-78
2022/04/26 11:16:09;;;;;;;6.95;4.40;;;;;;;15.46;71.37;100739.75;5200192;28;20041;-76
2022/04/26 11:18:42;;;;;;;6.65;4.85;;;;;;;15.47;72.98;100738.81;5203806;28;20025;-75
2022/04/26 11:21:13;;;;;;;8.27;5.03;;;;;;;15.41;76.02;100747.91;5203914;28;20061;-74
2022/04/26 11:29:36;;;;;;;6.53;4.80;;;;;;;15.89;70.94;100779.53;5194348;28;20168;-76
2022/04/26 11:32:07;;;;;;;9.13;5.00;;;;;;;15.79;74.21;100781.00;5196157;28;20072;-77
2022/04/26 11:34:46;;;;;;;8.02;5.43;;;;;;;15.47;76.86;100778.34;5202897;28;20394;-75
2022/04/26 11:37:16;;;;;;;7.15;4.78;;;;;;;14.94;76.44;100777.56;5202613;28;20021;-76
2022/04/26 11:39:48;;;;;;;7.10;4.40;;;;;;;14.53;76.98;100781.38;5201552;28;20036;-75
2022/04/26 11:42:19;;;;;;;5.63;4.00;;;;;;;14.47;76.62;100786.94;5202747;28;20034;-75
2022/04/26 11:45:04;;;;;;;7.55;3.47;;;;;;;14.61;76.58;100788.91;5204321;28;20049;-75
2022/04/26 11:47:39;;;;;;;6.40;3.70;;;;;;;14.61;77.45;100794.16;5199073;28;20036;-75
2022/04/26 11:50:15;;;;;;;5.03;3.47;;;;;;;14.53;76.83;100788.41;5201026;28;20029;-74
2022/04/26 11:52:47;;;;;;;5.68;3.47;;;;;;;14.63;77.33;100793.16;5201063;28;20025;-75
2022/04/26 11:55:23;;;;;;;5.28;2.53;;;;;;;14.29;77.36;100786.97;5187891;28;20487;-76
2022/04/26 11:58:16;;;;;;;4.72;3.30;;;;;;;14.27;77.69;100788.81;5203164;28;20040;-76
2022/04/26 12:00:49;;;;;;;4.80;3.13;;;;;;;14.15;79.22;100794.59;5188756;28;20106;-75
2022/04/26 12:03:22;;;;;;;5.05;3.00;;;;;;;14.08;78.39;100793.19;5198068;28;20063;-77
2022/04/26 12:06:02;;;;;;;6.93;3.38;;;;;;;14.12;77.76;100792.97;5199460;28;20022;-76
2022/04/26 12:08:36;;;;;;;7.10;3.85;;;;;;;14.14;77.38;100785.00;5194046;28;20022;-74
2022/04/26 12:11:21;;;;;;;6.53;3.38;;;;;;;14.17;77.24;100787.53;5195637;28;20049;-76
2022/04/26 12:14:05;;;;;;;7.40;4.15;;;;;;;14.08;77.27;100788.78;5203015;28;20107;-76
2022/04/26 12:16:49;;;;;;;5.53;3.53;;;;;;;13.92;77.77;100784.31;5202024;28;20273;-74
2022/04/26 12:19:32;;;;;;;5.78;3.42;;;;;;;14.11;79.03;100782.53;5200118;28;20029;-76
2022/04/26 12:22:04;;;;;;;6.45;3.13;;;;;;;14.23;78.73;100790.72;5197798;28;20061;-76
2022/04/26 12:24:46;;;;;;;6.38;3.40;;;;;;;14.22;78.00;100785.56;5199401;28;20109;-81
2022/04/26 12:27:26;;;;;;;6.30;3.30;;;;;;;14.24;78.04;100786.34;5183778;28;20171;-82
2022/04/26 12:29:57;;;;;;;4.75;2.97;;;;;;;14.12;77.42;100779.81;5182551;28;20219;-80
2022/04/26 12:32:28;;;;;;;4.75;2.72;;;;;;;14.36;77.13;100772.59;5191397;28;20109;-81
2022/04/26 12:35:02;;;;;;;6.13;3.13;;;;;;;14.40;76.43;100775.00;5192077;28;20030;-80
2022/04/26 12:37:34;;;;;;;7.15;2.95;;;;;;;14.48;75.75;100767.63;5189511;28;20030;-78
2022/04/26 12:40:11;;;;;;;4.85;2.70;;;;;;;14.52;75.84;100770.94;5188817;28;20036;-82
2022/04/26 12:42:42;;;;;;;4.97;2.70;;;;;;;14.45;72.48;100774.78;5197859;28;20036;-78
2022/04/26 12:45:21;;;;;;;5.43;2.95;;;;;;;13.72;78.18;100782.56;5200248;28;20175;-78
2022/04/26 12:50:55;;;;;;;7.07;3.15;;;;;;;13.57;81.21;100775.38;5200999;28;20114;-78
2022/04/26 12:53:28;;;;;;;5.50;3.30;;;;;;;13.83;80.71;100774.19;5196707;28;20029;-80
2022/04/26 12:56:09;;;;;;;5.80;3.25;;;;;;;14.31;78.53;100774.59;5195303;28;20488;-79
2022/04/26 12:58:45;;;;;;;4.35;3.00;;;;;;;14.17;77.73;100771.75;5201305;28;20029;-79
2022/04/26 13:01:15;;;;;;;4.05;2.45;;;;;;;14.52;74.88;100769.16;5187177;28;20053;-79
2022/04/26 13:03:47;;;;;;;5.78;2.67;;;;;;;14.85;75.28;100768.34;5199269;28;20087;-78
2022/04/26 13:06:19;;;;;;;3.75;2.38;;;;;;;15.09;74.33;100764.50;5194890;28;20033;-78
2022/04/26 13:08:51;;;;;;;4.38;2.60;;;;;;;14.94;76.29;100761.75;5198649;28;20036;-78
2022/04/26 13:11:21;;;;;;;4.75;2.50;;;;;;;14.99;74.90;100765.88;5198703;28;20107;-76
2022/04/26 13:13:51;;;;;;;3.55;2.35;;;;;;;15.15;77.14;100756.28;5202692;28;20068;-77
2022/04/26 13:16:21;;;;;;;5.60;2.60;;;;;;;15.31;71.57;100751.94;5192772;28;20391;-78
2022/04/26 13:18:52;;;;;;;6.18;2.90;;;;;;;15.35;69.31;100758.75;5198789;28;20292;-77
2022/04/26 13:21:22;;;;;;;5.63;3.00;;;;;;;15.41;69.38;100749.69;5203232;28;20025;-78
2022/04/26 13:23:54;;;;;;;7.73;3.10;;;;;;;15.37;71.26;100756.88;5200023;28;20038;-77
2022/04/26 13:26:25;;;;;;;6.15;3.10;;;;;;;15.56;70.95;100749.72;5201688;28;20371;-77
2022/04/26 13:28:55;;;;;;;6.82;3.47;;;;;;;15.50;72.07;100757.13;5197450;28;20517;-77
2022/04/26 13:31:25;;;;;;;6.73;3.20;;;;;;;15.30;73.36;100755.53;5192435;28;20025;-77
2022/04/26 13:33:56;;;;;;;5.40;3.20;;;;;;;15.24;75.26;100754.94;5197733;28;20286;-78
2022/04/26 13:36:27;;;;;;;5.18;3.47;;;;;;;15.11;74.09;100760.00;5199392;28;20276;-78
2022/04/26 13:38:58;;;;;;;4.20;3.00;;;;;;;15.31;71.21;100754.59;5196018;28;20113;-78
2022/04/26 13:41:31;;;;;;;4.63;3.10;;;;;;;15.26;71.63;100759.22;5198160;28;20061;-78
2022/04/26 13:44:01;;;;;;;4.63;3.40;;;;;;;14.94;72.62;100756.50;5201600;28;20580;-77
2022/04/26 13:46:32;;;;;;;6.35;3.70;;;;;;;14.89;72.49;100758.53;5199454;28;20033;-77
2022/04/26 13:49:03;;;;;;;8.43;3.53;;;;;;;15.12;73.75;100766.09;5202776;28;20105;-78
2022/04/26 13:51:33;;;;;;;10.93;3.50;;;;;;;14.91;75.03;100768.06;5192957;28;20029;-78
2022/04/26 13:54:04;;;;;;;6.43;3.58;;;;;;;14.66;76.15;100766.72;5194834;28;20065;-77
2022/04/26 13:56:34;;;;;;;6.28;3.42;;;;;;;14.92;75.84;100761.88;5195617;28;20495;-77
2022/04/26 13:59:04;;;;;;;4.93;3.40;;;;;;;15.08;74.56;100767.19;5195805;28;20057;-78
2022/04/26 14:01:35;;;;;;;6.38;3.72;;;;;;;15.21;76.87;100763.84;5197258;28;20288;-77
2022/04/26 14:04:05;;;;;;;5.70;3.00;;;;;;;15.44;71.91;100758.28;5196419;28;20034;-78
2022/04/26 14:06:36;;;;;;;9.05;3.67;;;;;;;14.94;71.58;100761.75;5197094;28;20034;-78
2022/04/26 14:09:06;;;;;;;7.40;3.40;;;;;;;14.79;72.26;100769.59;5194996;28;20030;-77
2022/04/26 14:11:36;;;;;;;6.32;3.65;;;;;;;14.67;72.85;100762.28;5191679;28;20033;-77
2022/04/26 14:22:34;;;;;;;4.20;3.20;;;;;;;15.03;73.42;100771.84;5193063;28;20679;-77
2022/04/26 14:25:08;;;;;;;6.65;3.70;;;;;;;15.03;71.65;100772.69;5190902;28;20037;-76
2022/04/26 14:27:41;;;;;;;5.22;3.40;;;;;;;15.11;72.41;100774.94;5188223;28;20029;-76
2022/04/26 14:30:13;;;;;;;6.28;3.60;;;;;;;14.88;73.49;100773.44;5186999;28;20022;-76
2022/04/26 14:32:46;;;;;;;5.05;3.20;;;;;;;15.12;70.57;100768.72;5190425;28;20036;-77
2022/04/26 14:35:16;;;;;;;6.15;3.70;;;;;;;15.27;70.41;100768.81;5186664;28;20037;-77
2022/04/26 14:37:48;;;;;;;5.03;3.17;;;;;;;15.61;68.12;100760.88;5188145;28;20028;-77
2022/04/26 14:40:19;;;;;;;4.88;3.20;;;;;;;15.56;67.25;100762.06;5194250;28;20415;-78
2022/04/26 14:42:50;;;;;;;5.50;3.10;;;;;;;15.54;67.88;100759.50;5199984;28;20044;-78
2022/04/26 14:45:21;;;;;;;6.00;2.90;;;;;;;15.65;67.20;100758.91;5196269;28;20033;-77
2022/04/26 14:47:52;;;;;;;4.82;2.80;;;;;;;15.64;66.27;100760.72;5198556;28;20037;-81
2022/04/26 14:50:22;;;;;;;5.55;2.88;;;;;;;15.67;66.16;100765.81;5196546;28;20026;-80
2022/04/26 14:52:53;;;;;;;5.30;2.55;;;;;;;15.62;64.83;100759.97;5197621;28;20037;-80
2022/04/26 14:55:23;;;;;;;5.00;2.70;;;;;;;15.74;65.65;100756.63;5197176;28;20021;-78
2022/04/26 14:57:53;;;;;;;5.85;2.90;;;;;;;15.87;65.46;100762.13;5200577;28;20435;-78
2022/04/26 15:00:23;;;;;;;5.57;3.10;;;;;;;15.51;67.64;100754.38;5182699;28;20056;-77
2022/04/26 15:02:54;;;;;;;5.55;3.13;;;;;;;15.48;68.51;100762.47;5186731;28;20299;-78
2022/04/26 15:05:26;;;;;;;4.13;2.65;;;;;;;15.49;70.47;100753.63;5197906;28;20037;-76
2022/04/26 15:10:45;;;;;;;5.85;3.03;;;;;;;15.17;68.44;100764.94;5182363;28;20323;-77
2022/04/26 15:18:54;;;;;;;4.35;2.90;;;;;;;15.53;67.22;100764.88;5189936;28;20576;-76
2022/04/26 15:21:24;;;;;;;6.85;3.13;;;;;;;15.54;68.46;100769.19;5184152;28;21131;-78
2022/04/26 15:23:54;;;;;;;5.15;3.08;;;;;;;15.60;68.75;100769.72;5187472;28;20092;-80
2022/04/26 15:26:25;;;;;;;5.50;2.78;;;;;;;15.50;68.64;100767.66;5187400;28;20652;-77
2022/04/26 15:28:57;;;;;;;4.18;2.70;;;;;;;15.43;72.50;100767.13;5187065;28;20029;-79
2022/04/26 15:31:27;;;;;;;3.80;2.30;;;;;;;15.46;71.38;100771.38;5187051;28;20018;-79
2022/04/26 15:33:58;;;;;;;6.25;3.17;;;;;;;15.41;70.41;100774.25;5200462;28;20649;-78
2022/04/26 15:36:28;;;;;;;4.72;2.80;;;;;;;15.40;70.65;100772.53;5194921;28;20024;-79
2022/04/26 15:38:58;;;;;;;5.07;2.92;;;;;;;15.28;71.63;100769.66;5188973;28;20121;-77
2022/04/26 15:41:32;;;;;;;4.57;2.70;;;;;;;15.24;71.14;100766.34;5183462;28;20045;-77
2022/04/26 15:44:05;;;;;;;4.97;2.88;;;;;;;15.29;69.13;100777.53;5194635;28;20036;-80
2022/04/26 15:46:35;;;;;;;4.25;2.90;;;;;;;15.17;69.53;100772.00;5190084;28;20038;-77
2022/04/26 15:49:06;;;;;;;4.25;2.58;;;;;;;15.12;71.07;100769.59;5193065;28;20024;-78
2022/04/26 15:51:36;;;;;;;4.35;2.83;;;;;;;15.09;71.62;100772.41;5188450;28;20625;-79
2022/04/26 15:54:07;;;;;;;3.97;2.65;;;;;;;15.04;72.28;100771.75;5193401;28;20044;-79
2022/04/26 15:56:37;;;;;;;3.63;2.28;;;;;;;15.17;72.61;100779.91;5190229;28;20030;-78
2022/04/26 15:59:09;;;;;;;4.82;3.10;;;;;;;15.33;72.16;100779.06;5193643;28;20694;-78
2022/04/26 16:01:40;;;;;;;4.88;2.97;;;;;;;15.30;70.47;100781.84;5183243;28;20042;-78
2022/04/26 16:04:10;;;;;;;3.63;2.40;;;;;;;15.18;69.89;100779.81;5195305;28;20044;-78